Time;durP1;ratioP1;P1;durP2;ratioP2;P2;SDS_P1;SDS_P2;PMS_P1;PMS_P2;Temp;Humidity;BMP_temperature;BMP_pressure;BME280_temperature;BME280_humidity;BME280_pressure;Samples;Min_cycle;Max_cycle;Signal;HPM_P1;HPM_P2
2022/07/23 00:01:22;;;;;;;8.48;6.80;;;25.20;81.70;;;;;;5050769;28;20574;-67
2022/07/23 00:03:50;;;;;;;7.57;6.60;;;25.10;81.80;;;;;;5052577;28;20205;-68
2022/07/23 00:06:16;;;;;;;8.88;6.68;;;25.20;81.90;;;;;;5053818;28;20605;-68
2022/07/23 00:08:43;;;;;;;7.78;6.78;;;25.10;82.00;;;;;;5051377;28;20205;-68
2022/07/23 00:11:10;;;;;;;8.80;6.93;;;25.10;82.20;;;;;;5052485;28;20198;-68
2022/07/23 00:13:37;;;;;;;9.45;6.93;;;25.00;82.10;;;;;;5048393;28;20674;-67
2022/07/23 00:16:06;;;;;;;6.93;6.30;;;25.00;82.20;;;;;;5041525;28;20198;-68
2022/07/23 00:18:33;;;;;;;7.63;6.90;;;25.10;82.30;;;;;;5050646;28;20214;-68
2022/07/23 00:20:59;;;;;;;8.43;6.22;;;25.00;82.50;;;;;;5053585;28;20213;-67
2022/07/23 00:23:27;;;;;;;10.15;7.28;;;25.00;82.90;;;;;;5051525;28;20232;-68
2022/07/23 00:25:54;;;;;;;7.60;6.75;;;25.00;83.00;;;;;;5052791;28;20218;-68
2022/07/23 00:28:20;;;;;;;10.30;7.28;;;25.00;83.10;;;;;;5041985;28;20226;-68
2022/07/23 00:30:47;;;;;;;8.68;7.88;;;25.00;83.20;;;;;;5049470;28;20225;-67
2022/07/23 00:33:15;;;;;;;13.85;9.10;;;25.00;83.30;;;;;;5051748;28;20209;-69
2022/07/23 00:35:43;;;;;;;11.73;8.65;;;25.00;83.50;;;;;;5049075;28;20221;-70
2022/07/23 00:38:11;;;;;;;10.95;8.70;;;25.00;83.70;;;;;;5048464;28;20534;-68
2022/07/23 00:40:41;;;;;;;11.40;9.90;;;25.00;83.60;;;;;;5049873;28;20210;-67
2022/07/23 00:43:08;;;;;;;11.98;9.10;;;25.00;84.60;;;;;;5046519;28;20222;-68
2022/07/23 00:45:35;;;;;;;9.27;7.90;;;24.90;83.70;;;;;;5052513;28;20226;-67
2022/07/23 00:48:02;;;;;;;11.55;8.18;;;24.90;84.00;;;;;;5049362;28;20233;-68
2022/07/23 00:50:30;;;;;;;9.27;8.00;;;24.90;84.20;;;;;;5052116;28;20222;-68
2022/07/23 00:52:57;;;;;;;9.45;8.18;;;24.90;84.30;;;;;;5050460;28;20206;-69
2022/07/23 00:55:24;;;;;;;8.00;7.20;;;24.90;84.40;;;;;;5052972;28;20202;-68
2022/07/23 00:57:51;;;;;;;7.55;6.68;;;24.80;84.30;;;;;;5044445;28;20206;-68
2022/07/23 01:00:18;;;;;;;7.50;6.80;;;24.90;84.70;;;;;;5049804;28;20651;-68
2022/07/23 01:02:45;;;;;;;8.10;6.93;;;24.80;84.70;;;;;;5050824;28;20909;-67
2022/07/23 01:05:13;;;;;;;8.02;6.65;;;24.80;84.70;;;;;;5038474;28;20585;-67
2022/07/23 01:07:41;;;;;;;8.77;6.90;;;24.80;84.80;;;;;;5051131;28;20217;-68
2022/07/23 01:12:49;;;;;;;8.52;6.45;;;24.70;85.10;;;;;;5049957;28;20567;-67
2022/07/23 01:15:16;;;;;;;8.65;6.60;;;24.70;85.50;;;;;;5038706;28;20207;-68
2022/07/23 01:17:43;;;;;;;9.75;6.93;;;24.70;85.70;;;;;;5048494;28;20643;-69
2022/07/23 01:20:10;;;;;;;7.63;6.82;;;24.60;85.70;;;;;;5052556;28;20651;-67
2022/07/23 01:22:38;;;;;;;9.02;8.02;;;24.60;85.80;;;;;;5040866;28;20674;-67
2022/07/23 01:25:06;;;;;;;9.35;7.20;;;24.70;86.00;;;;;;5052808;28;20671;-67
2022/07/23 01:27:33;;;;;;;9.70;6.75;;;24.60;86.10;;;;;;5049062;28;20570;-67
2022/07/23 01:30:01;;;;;;;7.18;6.32;;;24.60;86.20;;;;;;5049320;28;20228;-67
2022/07/23 01:32:28;;;;;;;7.78;6.60;;;24.50;86.30;;;;;;5051319;28;20225;-67
2022/07/23 01:34:55;;;;;;;8.00;7.10;;;24.60;86.60;;;;;;5051505;28;20220;-68
2022/07/23 01:37:21;;;;;;;8.93;7.18;;;24.50;86.50;;;;;;5049938;28;20648;-68
2022/07/23 01:39:50;;;;;;;8.20;6.68;;;24.50;86.60;;;;;;5045640;28;20301;-67
2022/07/23 01:42:16;;;;;;;9.73;7.45;;;24.50;87.40;;;;;;5048482;28;20221;-68
2022/07/23 01:44:43;;;;;;;8.88;7.18;;;24.40;86.60;;;;;;5051019;28;20206;-67
2022/07/23 01:47:10;;;;;;;7.25;6.55;;;24.40;86.90;;;;;;5048005;28;20241;-67
2022/07/23 01:49:37;;;;;;;8.00;7.30;;;24.40;87.00;;;;;;5051443;28;20678;-67
2022/07/23 01:52:06;;;;;;;12.38;7.32;;;24.30;87.30;;;;;;5051197;28;20221;-67
2022/07/23 01:54:34;;;;;;;7.60;6.80;;;24.30;87.30;;;;;;5054837;28;20296;-68
2022/07/23 01:57:02;;;;;;;11.13;7.60;;;24.30;87.40;;;;;;5055681;28;20205;-69
2022/07/23 01:59:30;;;;;;;9.43;7.30;;;24.30;87.40;;;;;;5055843;28;20213;-68
2022/07/23 02:01:57;;;;;;;8.13;7.28;;;24.30;87.40;;;;;;5055564;28;20529;-68
2022/07/23 02:04:25;;;;;;;9.75;8.55;;;24.20;87.40;;;;;;5056346;28;20654;-67
2022/07/23 02:06:52;;;;;;;10.07;8.05;;;24.20;87.50;;;;;;5052239;28;20229;-68
2022/07/23 02:09:19;;;;;;;10.90;8.25;;;24.20;87.70;;;;;;5054855;28;20282;-68
2022/07/23 02:11:46;;;;;;;10.32;8.27;;;24.10;87.90;;;;;;5054313;28;20213;-68
2022/07/23 02:14:14;;;;;;;11.18;8.50;;;24.00;88.00;;;;;;5055787;28;20209;-68
2022/07/23 02:16:41;;;;;;;9.63;8.63;;;24.00;88.40;;;;;;5053270;28;20304;-67
2022/07/23 02:19:07;;;;;;;11.35;8.13;;;23.80;88.60;;;;;;5050296;28;20202;-67
2022/07/23 02:21:34;;;;;;;12.35;8.50;;;23.80;89.40;;;;;;5046591;28;20768;-68
2022/07/23 02:24:01;;;;;;;9.43;8.43;;;23.70;89.60;;;;;;5040751;28;20209;-67
2022/07/23 02:26:28;;;;;;;10.05;7.90;;;23.60;90.00;;;;;;5054390;28;20212;-68
2022/07/23 02:28:54;;;;;;;11.82;8.65;;;23.60;90.20;;;;;;5052998;28;20209;-68
2022/07/23 02:31:22;;;;;;;9.95;8.95;;;23.60;90.30;;;;;;5054700;28;20216;-68
2022/07/23 02:33:49;;;;;;;12.77;9.15;;;23.60;90.50;;;;;;5041288;28;20562;-67
2022/07/23 02:36:16;;;;;;;17.75;9.00;;;23.50;90.50;;;;;;5041548;28;20220;-67
2022/07/23 02:38:43;;;;;;;11.55;9.25;;;23.50;90.70;;;;;;5053827;28;20212;-69
2022/07/23 02:41:10;;;;;;;9.45;8.55;;;23.40;90.70;;;;;;5052220;28;20213;-68
2022/07/23 02:43:36;;;;;;;10.90;9.02;;;23.40;90.80;;;;;;5055336;28;20213;-67
2022/07/23 02:46:03;;;;;;;12.55;8.68;;;23.20;90.90;;;;;;5054420;28;20233;-68
2022/07/23 02:48:31;;;;;;;10.35;9.00;;;23.30;91.10;;;;;;5046191;28;20245;-68
2022/07/23 02:50:58;;;;;;;10.82;9.65;;;23.20;91.20;;;;;;5052282;28;20288;-68
2022/07/23 02:53:25;;;;;;;10.98;9.88;;;23.20;91.40;;;;;;5046725;28;20214;-68
2022/07/23 02:55:52;;;;;;;11.65;9.15;;;23.10;91.40;;;;;;5046826;28;20570;-69
2022/07/23 02:58:19;;;;;;;13.10;10.07;;;23.10;91.60;;;;;;5050523;28;20225;-68
2022/07/23 03:00:46;;;;;;;9.25;8.40;;;23.00;91.60;;;;;;5052975;28;20582;-68
2022/07/23 03:03:13;;;;;;;11.98;9.63;;;23.00;91.70;;;;;;5053538;28;20248;-68
2022/07/23 03:05:41;;;;;;;11.50;9.57;;;23.00;92.10;;;;;;5052425;28;20228;-68
2022/07/23 03:08:08;;;;;;;16.45;9.50;;;23.00;91.90;;;;;;5053695;28;20210;-67
2022/07/23 03:10:34;;;;;;;11.10;9.38;;;23.00;92.00;;;;;;5051930;28;20701;-67
2022/07/23 03:13:01;;;;;;;14.50;9.00;;;23.00;92.10;;;;;;5043691;28;20213;-68
2022/07/23 03:15:28;;;;;;;11.20;9.98;;;23.00;92.10;;;;;;5045531;28;20678;-67
2022/07/23 03:17:55;;;;;;;14.45;10.38;;;23.00;92.20;;;;;;5044620;28;20647;-68
2022/07/23 03:20:21;;;;;;;11.18;10.07;;;23.00;92.30;;;;;;5052299;28;20666;-68
2022/07/23 03:22:49;;;;;;;13.18;9.98;;;23.00;92.30;;;;;;5053497;28;20217;-68
2022/07/23 03:25:16;;;;;;;10.45;9.35;;;23.00;92.30;;;;;;5052319;28;20705;-67
2022/07/23 03:27:45;;;;;;;11.07;9.98;;;23.00;92.40;;;;;;5053219;28;20222;-68
2022/07/23 03:30:12;;;;;;;12.63;10.25;;;23.00;92.40;;;;;;5052757;28;20256;-67
2022/07/23 03:32:39;;;;;;;16.77;9.45;;;23.00;92.50;;;;;;5049057;28;20214;-68
2022/07/23 03:35:07;;;;;;;12.77;10.25;;;23.00;92.50;;;;;;5042161;28;20264;-69
2022/07/23 03:37:34;;;;;;;11.93;10.10;;;23.00;92.60;;;;;;5039247;28;20199;-67
2022/07/23 03:40:02;;;;;;;15.80;10.27;;;23.10;92.70;;;;;;5052671;28;20694;-69
2022/07/23 03:42:29;;;;;;;13.68;10.23;;;23.10;92.70;;;;;;5048967;28;20214;-68
2022/07/23 03:44:55;;;;;;;16.67;10.40;;;23.00;92.70;;;;;;5052199;28;20554;-68
2022/07/23 03:47:22;;;;;;;13.02;10.10;;;23.00;92.80;;;;;;5006946;28;1087993;-68
2022/07/23 03:49:50;;;;;;;12.52;10.10;;;23.00;93.00;;;;;;5048245;28;20679;-68
2022/07/23 03:52:17;;;;;;;14.90;10.05;;;23.00;93.10;;;;;;5049379;28;20225;-67
2022/07/23 03:54:43;;;;;;;11.27;9.85;;;23.00;93.00;;;;;;5052483;28;20576;-68
2022/07/23 03:57:12;;;;;;;12.70;9.95;;;23.00;93.10;;;;;;5044665;28;20201;-67
2022/07/23 03:59:38;;;;;;;12.68;9.73;;;23.00;93.10;;;;;;5053977;28;20599;-68
2022/07/23 04:02:05;;;;;;;14.27;10.25;;;23.10;93.20;;;;;;5053346;28;20273;-67
2022/07/23 04:04:32;;;;;;;10.70;9.45;;;23.10;93.30;;;;;;5043369;28;20466;-68
2022/07/23 04:06:59;;;;;;;12.05;9.13;;;23.00;93.40;;;;;;5047607;28;20226;-67
2022/07/23 04:09:25;;;;;;;13.00;10.15;;;23.00;93.40;;;;;;5042474;28;20673;-67
2022/07/23 04:11:52;;;;;;;10.05;9.15;;;23.00;93.50;;;;;;5051815;28;20210;-68
2022/07/23 04:14:20;;;;;;;16.48;10.15;;;23.00;93.60;;;;;;5053016;28;20624;-69
2022/07/23 04:16:47;;;;;;;12.95;10.23;;;23.10;93.70;;;;;;5051652;28;20572;-69
2022/07/23 04:19:14;;;;;;;12.55;9.90;;;23.10;93.60;;;;;;5047286;28;20206;-69
2022/07/23 04:21:40;;;;;;;11.80;9.80;;;23.10;93.70;;;;;;5044624;28;20592;-68
2022/07/23 04:24:07;;;;;;;15.10;9.27;;;23.10;93.60;;;;;;5039694;28;20205;-67
2022/07/23 04:26:34;;;;;;;13.50;9.88;;;23.10;93.70;;;;;;5051100;28;20764;-68
2022/07/23 04:29:01;;;;;;;12.23;9.10;;;23.10;93.90;;;;;;5051307;28;20572;-67
2022/07/23 04:31:29;;;;;;;10.20;9.20;;;23.20;93.90;;;;;;5041682;28;20210;-67
2022/07/23 04:33:56;;;;;;;12.25;10.02;;;23.30;93.80;;;;;;5052934;28;20213;-67
2022/07/23 04:36:23;;;;;;;13.15;11.30;;;23.40;93.70;;;;;;5053360;28;20670;-68
2022/07/23 04:38:49;;;;;;;12.55;11.25;;;23.30;93.50;;;;;;5040597;28;20222;-69
2022/07/23 04:41:16;;;;;;;12.63;10.40;;;23.40;93.60;;;;;;5040216;28;20202;-68
2022/07/23 04:43:43;;;;;;;15.57;9.95;;;23.50;93.60;;;;;;5052278;28;20209;-69
2022/07/23 04:46:10;;;;;;;12.00;10.70;;;23.50;93.40;;;;;;5051872;28;20198;-67
2022/07/23 04:48:38;;;;;;;14.32;10.60;;;23.60;93.50;;;;;;5042894;28;20241;-67
2022/07/23 04:51:05;;;;;;;11.75;10.55;;;23.60;93.30;;;;;;5049656;28;20205;-67
2022/07/23 04:53:32;;;;;;;10.70;9.60;;;23.60;93.20;;;;;;5052494;28;20213;-68
2022/07/23 04:55:59;;;;;;;10.80;9.70;;;23.70;93.30;;;;;;5050745;28;20217;-68
2022/07/23 04:58:26;;;;;;;11.55;9.68;;;23.80;93.40;;;;;;5044265;28;20198;-68
2022/07/23 05:00:52;;;;;;;11.02;9.73;;;23.80;93.10;;;;;;5051182;28;20221;-67
2022/07/23 05:03:19;;;;;;;11.35;9.93;;;23.90;93.20;;;;;;5052839;28;20589;-67
2022/07/23 05:05:47;;;;;;;11.57;9.25;;;23.90;93.50;;;;;;5046359;28;20214;-67
2022/07/23 05:08:14;;;;;;;11.98;10.70;;;24.00;93.10;;;;;;5033456;28;20237;-67
2022/07/23 05:10:41;;;;;;;11.20;9.63;;;24.00;92.90;;;;;;5051333;28;20244;-68
2022/07/23 05:13:08;;;;;;;11.23;10.07;;;24.00;92.80;;;;;;5044424;28;20205;-67
2022/07/23 05:15:35;;;;;;;11.13;9.80;;;24.10;92.80;;;;;;5049383;28;20206;-69
2022/07/23 05:18:02;;;;;;;12.25;9.93;;;24.20;92.90;;;;;;5050631;28;20202;-67
2022/07/23 05:20:28;;;;;;;10.35;9.02;;;24.30;92.80;;;;;;5052630;28;20202;-68
2022/07/23 05:22:56;;;;;;;11.88;10.68;;;24.30;92.70;;;;;;5049904;28;20247;-67
2022/07/23 05:25:23;;;;;;;11.02;9.60;;;24.40;92.60;;;;;;5047552;28;20230;-67
2022/07/23 05:27:50;;;;;;;13.07;9.73;;;24.50;92.60;;;;;;5046574;28;20714;-66
2022/07/23 05:30:17;;;;;;;12.30;9.80;;;24.60;92.50;;;;;;5044628;28;20210;-66
2022/07/23 05:32:43;;;;;;;17.67;10.23;;;24.60;92.40;;;;;;5047770;28;20237;-67
2022/07/23 05:35:10;;;;;;;11.40;9.95;;;24.60;92.40;;;;;;5052033;28;20202;-68
2022/07/23 05:37:37;;;;;;;9.57;8.48;;;24.80;92.30;;;;;;5043289;28;20202;-68
2022/07/23 05:40:08;;;;;;;12.07;9.23;;;25.00;92.10;;;;;;5046599;28;20210;-67
2022/07/23 05:42:35;;;;;;;10.15;9.15;;;25.00;91.80;;;;;;5045197;28;20649;-67
2022/07/23 05:45:02;;;;;;;13.90;9.43;;;25.10;91.70;;;;;;5045351;28;20214;-69
2022/07/23 05:47:30;;;;;;;11.75;8.20;;;25.20;91.50;;;;;;5038340;28;20789;-69
2022/07/23 05:49:56;;;;;;;12.45;9.13;;;25.30;91.50;;;;;;5046023;28;20210;-68
2022/07/23 05:52:23;;;;;;;10.30;8.90;;;25.40;91.40;;;;;;5047315;28;20578;-69
2022/07/23 05:54:50;;;;;;;11.32;9.63;;;25.50;91.20;;;;;;5051252;28;20670;-68
2022/07/23 05:57:18;;;;;;;9.50;8.50;;;25.50;91.10;;;;;;5036123;28;20217;-68
2022/07/23 05:59:44;;;;;;;10.38;8.68;;;25.50;91.00;;;;;;5041969;28;20201;-67
2022/07/23 06:02:11;;;;;;;9.18;8.27;;;25.60;91.00;;;;;;5049603;28;20213;-68
2022/07/23 06:04:38;;;;;;;11.27;9.25;;;25.70;90.90;;;;;;5049428;28;20674;-69
2022/07/23 06:07:05;;;;;;;11.27;8.88;;;25.80;90.90;;;;;;5048659;28;20232;-67
2022/07/23 06:09:31;;;;;;;13.57;8.90;;;25.80;90.90;;;;;;5049015;28;20206;-67
2022/07/23 06:11:58;;;;;;;9.77;8.88;;;26.00;90.60;;;;;;5048901;28;20206;-69
2022/07/23 06:14:26;;;;;;;9.65;8.70;;;26.00;90.60;;;;;;5047882;28;20202;-68
2022/07/23 06:16:53;;;;;;;8.95;8.13;;;26.10;90.50;;;;;;5035822;28;20210;-69
2022/07/23 06:19:20;;;;;;;9.80;8.50;;;26.20;90.40;;;;;;5046463;28;20259;-71
2022/07/23 06:21:47;;;;;;;12.45;8.38;;;26.30;90.30;;;;;;5046982;28;20290;-69
2022/07/23 06:24:14;;;;;;;9.23;8.10;;;26.50;90.30;;;;;;5051888;28;20206;-68
2022/07/23 06:26:40;;;;;;;9.00;8.10;;;26.50;90.10;;;;;;5051962;28;20249;-68
2022/07/23 06:29:07;;;;;;;9.52;8.57;;;26.60;90.00;;;;;;5045946;28;20678;-68
2022/07/23 06:31:35;;;;;;;9.32;8.43;;;26.70;89.50;;;;;;5043813;28;20205;-68
2022/07/23 06:34:02;;;;;;;12.20;9.02;;;26.80;89.50;;;;;;5051348;28;20209;-67
2022/07/23 06:36:29;;;;;;;10.23;9.23;;;26.90;89.60;;;;;;5050993;28;20218;-70
2022/07/23 06:38:56;;;;;;;8.85;7.78;;;27.00;89.10;;;;;;5047499;28;20220;-66
2022/07/23 06:41:23;;;;;;;8.52;7.70;;;27.10;88.50;;;;;;5054866;28;20206;-71
2022/07/23 06:43:50;;;;;;;8.52;7.53;;;27.20;88.00;;;;;;5054893;28;20236;-68
2022/07/23 06:46:17;;;;;;;8.07;7.18;;;27.20;87.20;;;;;;5050327;28;20222;-69
2022/07/23 06:48:45;;;;;;;9.20;7.30;;;27.30;86.80;;;;;;5053757;28;20229;-68
2022/07/23 06:51:12;;;;;;;20.27;6.85;;;27.30;85.90;;;;;;5054413;28;20646;-67
2022/07/23 06:53:39;;;;;;;7.85;6.97;;;27.30;85.10;;;;;;5046686;28;20294;-70
2022/07/23 06:56:06;;;;;;;8.10;7.28;;;27.40;84.60;;;;;;5042123;28;20216;-67
2022/07/23 06:58:33;;;;;;;7.68;6.53;;;27.40;84.40;;;;;;5053688;28;20740;-68
2022/07/23 07:01:00;;;;;;;7.40;6.70;;;27.40;84.60;;;;;;5048334;28;20629;-69
2022/07/23 07:03:26;;;;;;;7.65;6.85;;;27.50;84.90;;;;;;5051147;28;20260;-67
2022/07/23 07:05:57;;;;;;;7.47;6.78;;;27.50;84.90;;;;;;5056371;28;20206;-70
2022/07/23 07:08:24;;;;;;;7.55;6.70;;;27.60;84.80;;;;;;5052144;28;20306;-69
2022/07/23 07:10:50;;;;;;;7.80;7.03;;;27.70;84.60;;;;;;5046524;28;20210;-68
2022/07/23 07:13:17;;;;;;;8.75;6.95;;;27.70;84.30;;;;;;5048310;28;20206;-69
2022/07/23 07:15:44;;;;;;;9.18;7.03;;;27.90;83.90;;;;;;5047469;28;20232;-70
2022/07/23 07:18:11;;;;;;;7.90;7.20;;;28.00;83.40;;;;;;5053479;28;20550;-70
2022/07/23 07:20:37;;;;;;;6.97;6.35;;;28.10;82.90;;;;;;5055997;28;20217;-71
2022/07/23 07:23:06;;;;;;;7.05;6.40;;;28.10;82.70;;;;;;5056339;28;20229;-71
2022/07/23 07:25:32;;;;;;;6.78;6.22;;;28.20;82.50;;;;;;5051560;28;20240;-70
2022/07/23 07:27:59;;;;;;;7.07;6.45;;;28.30;82.10;;;;;;5037335;28;20214;-69
2022/07/23 07:30:26;;;;;;;6.50;5.90;;;28.30;81.30;;;;;;5053067;28;20739;-71
2022/07/23 07:32:53;;;;;;;7.53;6.82;;;28.40;80.80;;;;;;5043407;28;20210;-71
2022/07/23 07:35:20;;;;;;;6.72;6.13;;;28.50;80.10;;;;;;5051249;28;20567;-71
2022/07/23 07:37:46;;;;;;;7.47;6.65;;;28.50;79.70;;;;;;5049134;28;20661;-66
2022/07/23 07:40:15;;;;;;;7.18;6.10;;;28.60;79.30;;;;;;5053344;28;20210;-68
2022/07/23 07:42:48;;;;;;;6.85;6.15;;;28.70;78.80;;;;;;5048261;28;20654;-70
2022/07/23 07:45:15;;;;;;;7.90;6.75;;;28.70;78.50;;;;;;5039012;28;20647;-68
2022/07/23 07:47:42;;;;;;;7.10;6.25;;;28.80;78.60;;;;;;5042365;28;20265;-70
2022/07/23 07:50:09;;;;;;;6.97;6.28;;;28.90;78.30;;;;;;5041553;28;20213;-69
2022/07/23 07:52:37;;;;;;;7.40;5.70;;;29.00;78.00;;;;;;5038568;28;20211;-70
2022/07/23 07:55:05;;;;;;;7.82;5.68;;;29.10;77.60;;;;;;5050851;28;20647;-68
2022/07/23 07:57:34;;;;;;;6.70;6.10;;;29.10;76.70;;;;;;5039082;28;20209;-69
2022/07/23 08:00:01;;;;;;;6.88;6.00;;;29.10;75.90;;;;;;5040773;28;20363;-70
2022/07/23 08:02:29;;;;;;;7.18;6.47;;;29.20;76.50;;;;;;5042684;28;20213;-71
2022/07/23 08:04:57;;;;;;;7.68;6.63;;;29.30;76.40;;;;;;5051306;28;20206;-69
2022/07/23 08:07:23;;;;;;;7.03;6.28;;;29.30;76.60;;;;;;5047775;28;20211;-71
2022/07/23 08:09:50;;;;;;;7.63;7.00;;;29.40;76.30;;;;;;5046613;28;20214;-70
2022/07/23 08:12:17;;;;;;;7.95;7.13;;;29.50;76.20;;;;;;5052975;28;20202;-70
2022/07/23 08:14:45;;;;;;;8.93;6.53;;;29.60;76.20;;;;;;5043650;28;20207;-70
2022/07/23 08:17:12;;;;;;;7.10;6.50;;;29.70;76.00;;;;;;5048360;28;20206;-70
2022/07/23 08:19:39;;;;;;;7.50;6.45;;;29.70;75.60;;;;;;5047399;28;20257;-70
2022/07/23 08:22:05;;;;;;;12.07;6.93;;;29.90;75.20;;;;;;5054617;28;20566;-70
2022/07/23 08:24:32;;;;;;;7.03;6.38;;;29.90;74.90;;;;;;5047274;28;20670;-70
2022/07/23 08:26:59;;;;;;;8.32;6.45;;;30.10;74.50;;;;;;5033759;28;20226;-71
2022/07/23 08:29:26;;;;;;;9.07;6.70;;;30.10;73.50;;;;;;5034618;28;20246;-71
2022/07/23 08:31:54;;;;;;;7.28;6.57;;;30.10;73.60;;;;;;5035413;28;20681;-72
2022/07/23 08:34:21;;;;;;;11.40;7.05;;;30.20;73.80;;;;;;5047591;28;20210;-71
2022/07/23 08:36:48;;;;;;;7.53;6.63;;;30.20;72.90;;;;;;5047566;28;20579;-70
2022/07/23 08:39:17;;;;;;;6.85;6.18;;;30.40;72.60;;;;;;5055626;28;20210;-70
2022/07/23 08:41:44;;;;;;;9.35;6.13;;;30.60;72.20;;;;;;5055968;28;20209;-69
2022/07/23 08:44:10;;;;;;;6.93;6.32;;;30.60;71.40;;;;;;5055969;28;20210;-70
2022/07/23 08:46:39;;;;;;;6.78;6.20;;;30.60;70.60;;;;;;5054696;28;20213;-69
2022/07/23 08:49:07;;;;;;;7.70;6.13;;;30.60;70.10;;;;;;5050853;28;20578;-68
2022/07/23 08:51:34;;;;;;;6.45;5.80;;;30.60;70.10;;;;;;5056151;28;20217;-69
2022/07/23 08:54:02;;;;;;;7.10;6.40;;;30.70;70.30;;;;;;5040838;28;20214;-69
2022/07/23 08:56:28;;;;;;;8.82;6.43;;;30.80;69.60;;;;;;5048650;28;20264;-69
2022/07/23 08:58:55;;;;;;;9.45;6.30;;;30.80;69.50;;;;;;5054743;28;20206;-69
2022/07/23 09:01:22;;;;;;;9.68;6.85;;;31.00;69.60;;;;;;5056428;28;20206;-70
2022/07/23 09:03:49;;;;;;;6.88;5.80;;;31.20;69.30;;;;;;5043135;28;20208;-71
2022/07/23 09:06:18;;;;;;;7.18;6.22;;;31.30;69.00;;;;;;5053357;28;20206;-69
2022/07/23 09:08:46;;;;;;;9.45;6.25;;;31.40;68.40;;;;;;5054070;28;20584;-69
2022/07/23 09:11:17;;;;;;;6.00;5.50;;;31.40;68.00;;;;;;5053597;28;20294;-69
2022/07/23 09:13:47;;;;;;;6.05;5.53;;;31.50;67.50;;;;;;5040531;28;20202;-69
2022/07/23 09:16:18;;;;;;;6.63;5.93;;;31.60;67.60;;;;;;5055026;28;20216;-69
2022/07/23 09:18:49;;;;;;;6.75;6.15;;;31.80;67.40;;;;;;5053504;28;20292;-69
2022/07/23 09:21:24;;;;;;;6.35;5.85;;;32.00;68.00;;;;;;5050861;28;20209;-69
2022/07/23 09:23:56;;;;;;;6.97;6.28;;;32.20;66.40;;;;;;5050018;28;20202;-71
2022/07/23 09:26:30;;;;;;;5.85;5.30;;;32.40;65.10;;;;;;5036893;28;20226;-70
2022/07/23 09:29:00;;;;;;;6.57;5.97;;;32.40;63.90;;;;;;5048708;28;20221;-69
2022/07/23 09:31:33;;;;;;;6.15;5.15;;;32.50;61.60;;;;;;5045973;28;20202;-70
2022/07/23 09:34:08;;;;;;;6.10;5.50;;;32.60;61.70;;;;;;5052202;28;20255;-69
2022/07/23 09:36:36;;;;;;;6.93;5.50;;;32.70;62.20;;;;;;5054319;28;20968;-70
2022/07/23 09:39:04;;;;;;;5.88;5.38;;;32.80;62.60;;;;;;5052612;28;20216;-70
2022/07/23 09:41:39;;;;;;;6.55;5.00;;;32.90;62.10;;;;;;5045107;28;20648;-69
2022/07/23 09:44:15;;;;;;;5.50;5.07;;;33.10;61.70;;;;;;5046787;28;20205;-69
2022/07/23 09:46:43;;;;;;;7.15;5.07;;;33.20;60.30;;;;;;5049488;28;21551;-69
2022/07/23 09:49:16;;;;;;;5.97;5.38;;;33.30;58.80;;;;;;5048580;28;20226;-69
2022/07/23 09:51:52;;;;;;;7.78;5.25;;;33.30;58.80;;;;;;5052714;28;20588;-69
2022/07/23 09:54:34;;;;;;;5.63;5.10;;;33.30;57.90;;;;;;5052589;28;20209;-69
2022/07/23 09:57:05;;;;;;;5.38;4.95;;;33.40;57.30;;;;;;5051512;28;20201;-67
2022/07/23 09:59:34;;;;;;;5.25;4.75;;;33.40;57.50;;;;;;5048528;28;20553;-70
2022/07/23 10:02:02;;;;;;;8.05;5.50;;;33.70;56.60;;;;;;5048512;28;20289;-69
2022/07/23 10:04:30;;;;;;;5.55;5.03;;;33.70;56.50;;;;;;5049692;28;20210;-70
2022/07/23 10:06:59;;;;;;;5.25;4.80;;;33.90;56.50;;;;;;5038728;28;20644;-69
2022/07/23 10:09:28;;;;;;;5.63;4.57;;;34.10;55.70;;;;;;5040354;28;20667;-70
2022/07/23 10:14:40;;;;;;;7.50;5.03;;;34.30;55.00;;;;;;5045157;28;20210;-70
2022/07/23 10:17:07;;;;;;;5.38;4.88;;;34.40;53.90;;;;;;5055560;28;20598;-69
2022/07/23 10:19:35;;;;;;;8.90;4.80;;;34.50;53.10;;;;;;5047651;28;20206;-69
2022/07/23 10:22:05;;;;;;;5.43;4.88;;;34.50;52.90;;;;;;5051194;28;20581;-69
2022/07/23 10:24:46;;;;;;;6.38;5.10;;;34.60;53.70;;;;;;5056714;28;20237;-69
2022/07/23 10:27:52;;;;;;;5.20;4.70;;;34.70;53.40;;;;;;5043464;28;20276;-69
2022/07/23 10:30:26;;;;;;;5.22;4.72;;;35.00;53.50;;;;;;5050457;28;20880;-70
2022/07/23 10:33:06;;;;;;;5.65;5.05;;;35.30;53.00;;;;;;5047707;28;20198;-70
2022/07/23 10:35:38;;;;;;;6.03;5.18;;;35.40;52.50;;;;;;5048960;28;20213;-70
2022/07/23 10:38:14;;;;;;;5.72;5.15;;;35.50;52.70;;;;;;5043030;28;20229;-70
2022/07/23 10:40:55;;;;;;;6.85;5.32;;;35.60;53.00;;;;;;5051617;28;20194;-69
2022/07/23 10:43:22;;;;;;;5.30;4.40;;;35.70;52.60;;;;;;5044706;28;20225;-69
2022/07/23 10:45:50;;;;;;;7.80;4.63;;;35.80;52.00;;;;;;5050543;28;20210;-69
2022/07/23 10:48:19;;;;;;;6.85;4.50;;;36.00;51.70;;;;;;5054819;28;20226;-69
2022/07/23 10:51:07;;;;;;;5.28;4.70;;;36.20;51.30;;;;;;5055642;28;20305;-69
2022/07/23 10:53:57;;;;;;;6.88;4.60;;;36.30;50.70;;;;;;5044975;28;20222;-69
2022/07/23 10:57:05;;;;;;;5.40;4.88;;;36.20;50.30;;;;;;5043416;28;20677;-70
2022/07/23 10:59:32;;;;;;;7.85;5.32;;;36.30;50.20;;;;;;5045908;28;20205;-69
2022/07/23 11:02:23;;;;;;;8.77;5.88;;;36.30;50.30;;;;;;5051838;28;20659;-70
2022/07/23 11:04:51;;;;;;;5.28;4.72;;;36.20;50.60;;;;;;5037113;28;20622;-69
2022/07/23 11:07:18;;;;;;;5.63;4.63;;;36.20;51.00;;;;;;5049910;28;20571;-70
2022/07/23 11:09:47;;;;;;;6.82;4.90;;;36.20;51.50;;;;;;5044024;28;20249;-70
2022/07/23 11:12:34;;;;;;;6.85;4.30;;;36.00;50.80;;;;;;5045214;28;20206;-69
2022/07/23 11:15:03;;;;;;;5.18;4.60;;;35.90;50.60;;;;;;5050014;28;20644;-68
2022/07/23 11:17:30;;;;;;;6.00;4.93;;;36.10;50.70;;;;;;5050566;28;20597;-70
2022/07/23 11:20:20;;;;;;;5.43;4.93;;;36.20;50.00;;;;;;5053188;28;20217;-68
2022/07/23 11:22:52;;;;;;;7.18;5.28;;;36.40;49.70;;;;;;5053690;28;20209;-69
2022/07/23 11:25:38;;;;;;;5.07;4.65;;;36.40;49.30;;;;;;5047876;28;20255;-70
2022/07/23 11:28:15;;;;;;;4.88;4.47;;;36.30;49.80;;;;;;5047053;28;20206;-69
2022/07/23 11:30:44;;;;;;;5.85;4.50;;;36.40;50.00;;;;;;5055080;28;20292;-67
2022/07/23 11:33:22;;;;;;;4.78;4.35;;;36.50;50.00;;;;;;5054774;28;20655;-69
2022/07/23 11:36:01;;;;;;;7.82;4.28;;;36.60;49.90;;;;;;5053818;28;20535;-69
2022/07/23 11:38:31;;;;;;;6.03;4.57;;;36.60;49.70;;;;;;5053113;28;20216;-68
2022/07/23 11:40:59;;;;;;;5.85;5.28;;;36.60;50.30;;;;;;5048497;28;20221;-69
2022/07/23 11:43:26;;;;;;;7.38;5.53;;;36.60;50.40;;;;;;5046556;28;20217;-70
2022/07/23 11:45:57;;;;;;;6.28;5.40;;;36.50;50.40;;;;;;5051334;28;20213;-69
2022/07/23 11:48:27;;;;;;;7.35;5.60;;;36.30;50.80;;;;;;5053906;28;20253;-69
2022/07/23 11:50:55;;;;;;;6.90;5.70;;;36.30;51.10;;;;;;5052174;28;20244;-68
2022/07/23 11:53:26;;;;;;;5.85;5.22;;;36.20;51.30;;;;;;5054395;28;20206;-69
2022/07/23 11:55:54;;;;;;;8.07;6.18;;;36.30;51.20;;;;;;5046980;28;20210;-71
2022/07/23 11:58:22;;;;;;;5.60;5.10;;;36.40;51.00;;;;;;5041585;28;20206;-69
2022/07/23 12:00:50;;;;;;;6.38;4.70;;;36.50;50.90;;;;;;5042728;28;20237;-70
2022/07/23 12:03:17;;;;;;;5.93;5.32;;;36.60;50.80;;;;;;5045769;28;20568;-69
2022/07/23 12:05:44;;;;;;;6.95;5.43;;;36.60;50.40;;;;;;5041681;28;20202;-68
2022/07/23 12:08:11;;;;;;;5.68;5.10;;;36.50;51.00;;;;;;5034427;28;20213;-69
2022/07/23 12:10:39;;;;;;;6.30;5.60;;;36.60;51.40;;;;;;5036504;28;20363;-68
2022/07/23 12:13:10;;;;;;;7.82;5.63;;;36.60;50.50;;;;;;5036780;28;20258;-67
2022/07/23 12:15:39;;;;;;;8.63;6.18;;;36.70;50.50;;;;;;5052025;28;20750;-66
2022/07/23 12:18:08;;;;;;;6.88;6.25;;;36.90;50.20;;;;;;5053124;28;20209;-64
2022/07/23 12:20:37;;;;;;;10.13;5.05;;;37.00;50.10;;;;;;5050248;28;20206;-67
2022/07/23 12:23:05;;;;;;;7.10;4.68;;;36.90;50.10;;;;;;5053688;28;20647;-67
2022/07/23 12:25:37;;;;;;;5.72;4.70;;;36.90;50.30;;;;;;5051271;28;20225;-64
2022/07/23 12:28:06;;;;;;;6.22;5.60;;;37.00;50.10;;;;;;5052791;28;20209;-70
2022/07/23 12:30:37;;;;;;;7.78;5.38;;;37.00;49.70;;;;;;5043612;28;20230;-70
2022/07/23 12:33:08;;;;;;;7.70;5.22;;;37.00;49.90;;;;;;5044191;28;20201;-70
2022/07/23 12:35:38;;;;;;;5.40;4.90;;;36.90;50.00;;;;;;5037950;28;20655;-70
2022/07/23 12:38:06;;;;;;;6.40;5.22;;;36.80;50.10;;;;;;5037880;28;20202;-70
2022/07/23 12:40:35;;;;;;;9.57;5.20;;;36.80;49.70;;;;;;5045961;28;20206;-69
2022/07/23 12:43:05;;;;;;;5.95;4.82;;;36.70;49.40;;;;;;5042760;28;20253;-70
2022/07/23 12:45:45;;;;;;;5.88;5.22;;;36.60;49.40;;;;;;5045608;28;20679;-70
2022/07/23 12:48:20;;;;;;;6.22;5.00;;;36.60;49.60;;;;;;5043175;28;20248;-70
2022/07/23 12:50:51;;;;;;;6.03;4.85;;;36.70;49.60;;;;;;5041714;28;20213;-70
2022/07/23 12:53:20;;;;;;;6.47;4.97;;;36.70;49.60;;;;;;5041830;28;20209;-69
2022/07/23 12:55:48;;;;;;;6.65;4.90;;;36.80;49.40;;;;;;5045707;28;20198;-71